sensor_id;sensor_type;location;lat;lon;timestamp;temperature;humidity
66670;DHT22;53568;52.164;4.472;2022-09-21T00:01:13;16.65;63.98
66670;DHT22;53568;52.164;4.472;2022-09-21T00:03:40;16.65;64.01
66670;DHT22;53568;52.164;4.472;2022-09-21T00:06:10;16.65;64.08
66670;DHT22;53568;52.164;4.472;2022-09-21T00:08:36;16.66;63.57
66670;DHT22;53568;52.164;4.472;2022-09-21T00:11:02;16.63;63.50
66670;DHT22;53568;52.164;4.472;2022-09-21T00:13:29;16.62;63.13
66670;DHT22;53568;52.164;4.472;2022-09-21T00:15:56;16.62;63.15
66670;DHT22;53568;52.164;4.472;2022-09-21T00:18:23;16.59;63.24
66670;DHT22;53568;52.164;4.472;2022-09-21T00:20:49;16.62;63.60
66670;DHT22;53568;52.164;4.472;2022-09-21T00:23:15;16.60;63.78
66670;DHT22;53568;52.164;4.472;2022-09-21T00:25:41;16.66;63.68
66670;DHT22;53568;52.164;4.472;2022-09-21T00:28:06;16.66;63.84
66670;DHT22;53568;52.164;4.472;2022-09-21T00:30:32;16.68;63.92
66670;DHT22;53568;52.164;4.472;2022-09-21T00:32:58;16.66;63.97
66670;DHT22;53568;52.164;4.472;2022-09-21T00:35:23;16.69;64.14
66670;DHT22;53568;52.164;4.472;2022-09-21T00:37:49;16.68;64.14
66670;DHT22;53568;52.164;4.472;2022-09-21T00:40:15;16.69;64.31
66670;DHT22;53568;52.164;4.472;2022-09-21T00:42:40;16.65;64.64
66670;DHT22;53568;52.164;4.472;2022-09-21T00:45:09;16.62;65.01
66670;DHT22;53568;52.164;4.472;2022-09-21T00:47:49;16.51;65.44
66670;DHT22;53568;52.164;4.472;2022-09-21T00:50:20;16.45;65.51
66670;DHT22;53568;52.164;4.472;2022-09-21T00:52:52;16.45;65.84
66670;DHT22;53568;52.164;4.472;2022-09-21T00:55:31;16.39;65.91
66670;DHT22;53568;52.164;4.472;2022-09-21T00:58:04;16.38;66.08
66670;DHT22;53568;52.164;4.472;2022-09-21T01:00:32;16.36;66.36
66670;DHT22;53568;52.164;4.472;2022-09-21T01:02:58;16.35;66.49
66670;DHT22;53568;52.164;4.472;2022-09-21T01:05:26;16.32;66.64
66670;DHT22;53568;52.164;4.472;2022-09-21T01:07:56;16.30;66.80
66670;DHT22;53568;52.164;4.472;2022-09-21T01:10:25;16.29;66.99
66670;DHT22;53568;52.164;4.472;2022-09-21T01:13:12;16.29;67.19
66670;DHT22;53568;52.164;4.472;2022-09-21T01:16:04;16.30;67.43
66670;DHT22;53568;52.164;4.472;2022-09-21T01:18:34;16.26;67.70
66670;DHT22;53568;52.164;4.472;2022-09-21T01:26:34;16.29;67.99
66670;DHT22;53568;52.164;4.472;2022-09-21T01:29:26;16.28;68.00
66670;DHT22;53568;52.164;4.472;2022-09-21T01:35:20;16.26;67.91
66670;DHT22;53568;52.164;4.472;2022-09-21T01:37:54;16.26;67.46
66670;DHT22;53568;52.164;4.472;2022-09-21T01:42:56;16.32;66.75
66670;DHT22;53568;52.164;4.472;2022-09-21T01:45:34;16.32;67.08
66670;DHT22;53568;52.164;4.472;2022-09-21T01:48:01;16.30;67.14
66670;DHT22;53568;52.164;4.472;2022-09-21T01:50:33;16.24;67.25
66670;DHT22;53568;52.164;4.472;2022-09-21T01:53:21;16.15;67.33
66670;DHT22;53568;52.164;4.472;2022-09-21T01:55:52;16.09;67.40
66670;DHT22;53568;52.164;4.472;2022-09-21T01:58:30;16.08;67.06
66670;DHT22;53568;52.164;4.472;2022-09-21T02:00:58;16.11;66.64
66670;DHT22;53568;52.164;4.472;2022-09-21T02:05:59;16.05;66.51
66670;DHT22;53568;52.164;4.472;2022-09-21T02:08:29;16.06;66.27
66670;DHT22;53568;52.164;4.472;2022-09-21T02:10:59;16.04;66.13
66670;DHT22;53568;52.164;4.472;2022-09-21T02:13:32;16.11;65.82
66670;DHT22;53568;52.164;4.472;2022-09-21T02:27:04;16.18;66.71
66670;DHT22;53568;52.164;4.472;2022-09-21T02:29:50;16.21;67.11
66670;DHT22;53568;52.164;4.472;2022-09-21T02:40:49;16.09;68.00
66670;DHT22;53568;52.164;4.472;2022-09-21T02:43:40;16.06;68.22
66670;DHT22;53568;52.164;4.472;2022-09-21T02:46:21;16.02;68.40
66670;DHT22;53568;52.164;4.472;2022-09-21T02:48:57;15.98;68.48
66670;DHT22;53568;52.164;4.472;2022-09-21T02:51:30;16.00;68.54
66670;DHT22;53568;52.164;4.472;2022-09-21T02:54:00;15.98;68.56
66670;DHT22;53568;52.164;4.472;2022-09-21T02:56:29;15.98;68.18
66670;DHT22;53568;52.164;4.472;2022-09-21T02:59:00;15.88;67.83
66670;DHT22;53568;52.164;4.472;2022-09-21T03:01:28;15.81;68.02
66670;DHT22;53568;52.164;4.472;2022-09-21T03:03:54;15.71;68.18
66670;DHT22;53568;52.164;4.472;2022-09-21T03:06:20;15.61;68.56
66670;DHT22;53568;52.164;4.472;2022-09-21T03:08:45;15.54;68.87
66670;DHT22;53568;52.164;4.472;2022-09-21T03:11:18;15.54;68.79
66670;DHT22;53568;52.164;4.472;2022-09-21T03:13:44;15.54;68.57
66670;DHT22;53568;52.164;4.472;2022-09-21T03:16:11;15.50;68.34
66670;DHT22;53568;52.164;4.472;2022-09-21T03:18:37;15.40;68.44
66670;DHT22;53568;52.164;4.472;2022-09-21T03:21:05;15.37;68.61
66670;DHT22;53568;52.164;4.472;2022-09-21T03:23:30;15.36;68.69
66670;DHT22;53568;52.164;4.472;2022-09-21T03:25:56;15.33;68.62
66670;DHT22;53568;52.164;4.472;2022-09-21T03:28:22;15.31;68.57
66670;DHT22;53568;52.164;4.472;2022-09-21T03:30:49;15.36;68.61
66670;DHT22;53568;52.164;4.472;2022-09-21T03:33:16;15.36;68.51
66670;DHT22;53568;52.164;4.472;2022-09-21T03:35:41;15.38;68.43
66670;DHT22;53568;52.164;4.472;2022-09-21T03:38:08;15.36;68.41
66670;DHT22;53568;52.164;4.472;2022-09-21T03:40:33;15.37;68.37
66670;DHT22;53568;52.164;4.472;2022-09-21T03:42:59;15.36;68.75
66670;DHT22;53568;52.164;4.472;2022-09-21T03:45:24;15.38;68.81
66670;DHT22;53568;52.164;4.472;2022-09-21T03:47:57;15.33;69.02
66670;DHT22;53568;52.164;4.472;2022-09-21T03:50:27;15.30;68.99
66670;DHT22;53568;52.164;4.472;2022-09-21T03:52:54;15.27;69.03
66670;DHT22;53568;52.164;4.472;2022-09-21T03:55:20;15.27;69.26
66670;DHT22;53568;52.164;4.472;2022-09-21T03:57:46;15.26;69.28
66670;DHT22;53568;52.164;4.472;2022-09-21T04:00:12;15.24;69.54
66670;DHT22;53568;52.164;4.472;2022-09-21T04:02:39;15.24;69.61
66670;DHT22;53568;52.164;4.472;2022-09-21T04:05:06;15.24;69.69
66670;DHT22;53568;52.164;4.472;2022-09-21T04:07:33;15.23;69.70
66670;DHT22;53568;52.164;4.472;2022-09-21T04:10:06;15.22;69.75
66670;DHT22;53568;52.164;4.472;2022-09-21T04:12:33;15.22;69.78
66670;DHT22;53568;52.164;4.472;2022-09-21T04:15:02;15.20;69.79
66670;DHT22;53568;52.164;4.472;2022-09-21T04:17:32;15.17;69.92
66670;DHT22;53568;52.164;4.472;2022-09-21T04:19:58;15.19;69.91
66670;DHT22;53568;52.164;4.472;2022-09-21T04:22:24;15.19;69.81
66670;DHT22;53568;52.164;4.472;2022-09-21T04:24:50;15.14;69.81
66670;DHT22;53568;52.164;4.472;2022-09-21T04:27:16;15.16;69.77
66670;DHT22;53568;52.164;4.472;2022-09-21T04:29:42;15.14;69.75
66670;DHT22;53568;52.164;4.472;2022-09-21T04:32:09;15.17;69.62
66670;DHT22;53568;52.164;4.472;2022-09-21T04:34:36;15.19;69.38
66670;DHT22;53568;52.164;4.472;2022-09-21T04:37:07;15.11;69.52
66670;DHT22;53568;52.164;4.472;2022-09-21T04:39:33;15.13;69.58
66670;DHT22;53568;52.164;4.472;2022-09-21T04:42:00;15.14;69.52
66670;DHT22;53568;52.164;4.472;2022-09-21T04:44:26;15.17;69.28
66670;DHT22;53568;52.164;4.472;2022-09-21T04:46:51;15.19;69.07
66670;DHT22;53568;52.164;4.472;2022-09-21T04:49:17;15.22;68.82
66670;DHT22;53568;52.164;4.472;2022-09-21T04:51:42;15.26;68.53
66670;DHT22;53568;52.164;4.472;2022-09-21T04:54:08;15.26;68.31
66670;DHT22;53568;52.164;4.472;2022-09-21T04:56:33;15.28;68.08
66670;DHT22;53568;52.164;4.472;2022-09-21T04:58:59;15.30;67.90
66670;DHT22;53568;52.164;4.472;2022-09-21T05:01:25;15.34;67.73
66670;DHT22;53568;52.164;4.472;2022-09-21T05:03:50;15.33;67.51
66670;DHT22;53568;52.164;4.472;2022-09-21T05:06:16;15.34;67.16
66670;DHT22;53568;52.164;4.472;2022-09-21T05:08:41;15.33;67.04
66670;DHT22;53568;52.164;4.472;2022-09-21T05:11:25;15.33;67.00
66670;DHT22;53568;52.164;4.472;2022-09-21T05:13:51;15.28;67.07
66670;DHT22;53568;52.164;4.472;2022-09-21T05:16:17;15.26;67.21
66670;DHT22;53568;52.164;4.472;2022-09-21T05:18:43;15.24;67.39
66670;DHT22;53568;52.164;4.472;2022-09-21T05:21:13;15.23;67.66
66670;DHT22;53568;52.164;4.472;2022-09-21T05:23:40;15.26;67.76
66670;DHT22;53568;52.164;4.472;2022-09-21T05:26:06;15.23;67.91
66670;DHT22;53568;52.164;4.472;2022-09-21T05:28:32;15.22;68.10
66670;DHT22;53568;52.164;4.472;2022-09-21T05:33:27;15.19;68.27
66670;DHT22;53568;52.164;4.472;2022-09-21T05:36:29;15.23;68.33
66670;DHT22;53568;52.164;4.472;2022-09-21T05:38:59;15.20;68.48
66670;DHT22;53568;52.164;4.472;2022-09-21T05:41:25;15.22;68.57
66670;DHT22;53568;52.164;4.472;2022-09-21T05:43:50;15.23;68.55
66670;DHT22;53568;52.164;4.472;2022-09-21T05:46:38;15.24;68.65
66670;DHT22;53568;52.164;4.472;2022-09-21T05:49:31;15.26;68.60
66670;DHT22;53568;52.164;4.472;2022-09-21T05:57:45;15.28;68.43
66670;DHT22;53568;52.164;4.472;2022-09-21T06:00:21;15.31;68.18
66670;DHT22;53568;52.164;4.472;2022-09-21T06:05:35;15.30;67.90
66670;DHT22;53568;52.164;4.472;2022-09-21T06:08:00;15.30;67.71
66670;DHT22;53568;52.164;4.472;2022-09-21T06:10:32;15.34;67.69
66670;DHT22;53568;52.164;4.472;2022-09-21T06:12:58;15.34;67.59
66670;DHT22;53568;52.164;4.472;2022-09-21T06:15:24;15.40;67.50
66670;DHT22;53568;52.164;4.472;2022-09-21T06:17:49;15.41;67.44
66670;DHT22;53568;52.164;4.472;2022-09-21T06:20:15;15.41;67.49
66670;DHT22;53568;52.164;4.472;2022-09-21T06:22:40;15.38;67.61
66670;DHT22;53568;52.164;4.472;2022-09-21T06:25:06;15.43;67.61
66670;DHT22;53568;52.164;4.472;2022-09-21T06:27:32;15.46;67.61
66670;DHT22;53568;52.164;4.472;2022-09-21T06:29:57;15.46;67.62
66670;DHT22;53568;52.164;4.472;2022-09-21T06:32:23;15.44;67.84
66670;DHT22;53568;52.164;4.472;2022-09-21T06:34:49;15.49;68.01
66670;DHT22;53568;52.164;4.472;2022-09-21T06:37:14;15.47;68.07
66670;DHT22;53568;52.164;4.472;2022-09-21T06:39:40;15.46;68.26
66670;DHT22;53568;52.164;4.472;2022-09-21T06:42:05;15.44;68.45
66670;DHT22;53568;52.164;4.472;2022-09-21T06:44:31;15.41;68.63
66670;DHT22;53568;52.164;4.472;2022-09-21T06:46:56;15.41;68.74
66670;DHT22;53568;52.164;4.472;2022-09-21T06:49:22;15.40;68.73
66670;DHT22;53568;52.164;4.472;2022-09-21T06:51:47;15.40;68.76
66670;DHT22;53568;52.164;4.472;2022-09-21T06:54:13;15.40;68.75
66670;DHT22;53568;52.164;4.472;2022-09-21T06:56:39;15.43;68.59
66670;DHT22;53568;52.164;4.472;2022-09-21T06:59:06;15.51;68.42
66670;DHT22;53568;52.164;4.472;2022-09-21T07:01:32;15.54;68.31
66670;DHT22;53568;52.164;4.472;2022-09-21T07:03:57;15.54;67.90
66670;DHT22;53568;52.164;4.472;2022-09-21T07:06:23;15.50;67.73
66670;DHT22;53568;52.164;4.472;2022-09-21T07:08:51;15.47;67.94
66670;DHT22;53568;52.164;4.472;2022-09-21T07:11:19;15.50;68.00
66670;DHT22;53568;52.164;4.472;2022-09-21T07:13:46;15.58;67.85
66670;DHT22;53568;52.164;4.472;2022-09-21T07:16:11;15.65;67.51
66670;DHT22;53568;52.164;4.472;2022-09-21T07:18:39;15.70;67.18
66670;DHT22;53568;52.164;4.472;2022-09-21T07:21:07;15.80;67.10
66670;DHT22;53568;52.164;4.472;2022-09-21T07:23:33;15.82;66.81
66670;DHT22;53568;52.164;4.472;2022-09-21T07:26:05;15.91;66.42
66670;DHT22;53568;52.164;4.472;2022-09-21T07:28:38;15.98;65.93
66670;DHT22;53568;52.164;4.472;2022-09-21T07:31:12;16.01;65.36
66670;DHT22;53568;52.164;4.472;2022-09-21T07:33:38;16.02;64.24
66670;DHT22;53568;52.164;4.472;2022-09-21T07:36:05;16.08;63.33
66670;DHT22;53568;52.164;4.472;2022-09-21T07:38:40;16.00;63.29
66670;DHT22;53568;52.164;4.472;2022-09-21T07:41:06;16.05;63.42
66670;DHT22;53568;52.164;4.472;2022-09-21T07:43:32;16.18;63.22
66670;DHT22;53568;52.164;4.472;2022-09-21T07:45:59;16.15;62.34
66670;DHT22;53568;52.164;4.472;2022-09-21T07:48:26;16.15;62.58
66670;DHT22;53568;52.164;4.472;2022-09-21T07:50:53;16.16;62.55
66670;DHT22;53568;52.164;4.472;2022-09-21T07:53:19;16.15;62.72
66670;DHT22;53568;52.164;4.472;2022-09-21T07:55:45;16.19;62.75
66670;DHT22;53568;52.164;4.472;2022-09-21T07:58:10;16.19;62.40
66670;DHT22;53568;52.164;4.472;2022-09-21T08:00:54;16.21;62.47
66670;DHT22;53568;52.164;4.472;2022-09-21T08:03:20;16.30;62.35
66670;DHT22;53568;52.164;4.472;2022-09-21T08:05:45;16.42;61.99
66670;DHT22;53568;52.164;4.472;2022-09-21T08:08:11;16.48;61.68
66670;DHT22;53568;52.164;4.472;2022-09-21T08:10:37;16.51;61.53
66670;DHT22;53568;52.164;4.472;2022-09-21T08:13:04;16.56;61.47
66670;DHT22;53568;52.164;4.472;2022-09-21T08:15:29;16.63;61.58
66670;DHT22;53568;52.164;4.472;2022-09-21T08:17:55;16.72;61.61
66670;DHT22;53568;52.164;4.472;2022-09-21T08:20:21;16.84;61.83
66670;DHT22;53568;52.164;4.472;2022-09-21T08:22:46;16.97;61.20
66670;DHT22;53568;52.164;4.472;2022-09-21T08:25:12;16.94;60.70
66670;DHT22;53568;52.164;4.472;2022-09-21T08:27:38;16.97;60.85
66670;DHT22;53568;52.164;4.472;2022-09-21T08:30:05;16.90;61.31
66670;DHT22;53568;52.164;4.472;2022-09-21T08:32:32;16.93;61.11
66670;DHT22;53568;52.164;4.472;2022-09-21T08:34:57;16.96;61.28
66670;DHT22;53568;52.164;4.472;2022-09-21T08:37:23;17.00;60.35
66670;DHT22;53568;52.164;4.472;2022-09-21T08:39:49;17.16;59.75
66670;DHT22;53568;52.164;4.472;2022-09-21T08:42:36;17.23;59.37
66670;DHT22;53568;52.164;4.472;2022-09-21T08:45:10;17.23;59.04
66670;DHT22;53568;52.164;4.472;2022-09-21T08:50:05;17.44;57.65
66670;DHT22;53568;52.164;4.472;2022-09-21T08:52:36;17.53;55.89
66670;DHT22;53568;52.164;4.472;2022-09-21T08:55:12;17.43;56.46
66670;DHT22;53568;52.164;4.472;2022-09-21T08:57:38;17.50;56.89
66670;DHT22;53568;52.164;4.472;2022-09-21T09:00:13;17.60;55.83
66670;DHT22;53568;52.164;4.472;2022-09-21T09:03:07;17.63;54.85
66670;DHT22;53568;52.164;4.472;2022-09-21T09:05:51;17.71;53.61
66670;DHT22;53568;52.164;4.472;2022-09-21T09:13:57;17.64;54.63
66670;DHT22;53568;52.164;4.472;2022-09-21T09:19:33;17.85;54.52
66670;DHT22;53568;52.164;4.472;2022-09-21T09:22:06;18.02;52.29
66670;DHT22;53568;52.164;4.472;2022-09-21T09:24:47;17.88;52.16
66670;DHT22;53568;52.164;4.472;2022-09-21T09:27:20;17.81;52.36
66670;DHT22;53568;52.164;4.472;2022-09-21T09:32:48;17.97;52.48
66670;DHT22;53568;52.164;4.472;2022-09-21T09:37:55;17.95;52.15
66670;DHT22;53568;52.164;4.472;2022-09-21T09:40:45;17.87;52.08
66670;DHT22;53568;52.164;4.472;2022-09-21T09:43:25;17.90;51.82
66670;DHT22;53568;52.164;4.472;2022-09-21T09:46:00;18.05;52.25
66670;DHT22;53568;52.164;4.472;2022-09-21T09:50:52;18.22;52.21
66670;DHT22;53568;52.164;4.472;2022-09-21T09:53:22;18.13;51.23
66670;DHT22;53568;52.164;4.472;2022-09-21T09:55:52;18.15;51.39
66670;DHT22;53568;52.164;4.472;2022-09-21T09:58:38;18.28;51.47
66670;DHT22;53568;52.164;4.472;2022-09-21T10:01:06;18.33;51.82
66670;DHT22;53568;52.164;4.472;2022-09-21T10:03:32;18.39;52.23
66670;DHT22;53568;52.164;4.472;2022-09-21T10:05:57;18.46;51.29
66670;DHT22;53568;52.164;4.472;2022-09-21T10:08:39;18.52;50.05
66670;DHT22;53568;52.164;4.472;2022-09-21T10:11:06;18.51;49.65
66670;DHT22;53568;52.164;4.472;2022-09-21T10:13:34;18.48;49.32
66670;DHT22;53568;52.164;4.472;2022-09-21T10:18:42;18.49;51.17
66670;DHT22;53568;52.164;4.472;2022-09-21T10:26:47;18.62;50.49
66670;DHT22;53568;52.164;4.472;2022-09-21T10:34:26;18.65;50.60
66670;DHT22;53568;52.164;4.472;2022-09-21T10:36:54;18.76;49.57
66670;DHT22;53568;52.164;4.472;2022-09-21T10:42:03;18.87;48.76
66670;DHT22;53568;52.164;4.472;2022-09-21T10:44:41;18.97;48.65
66670;DHT22;53568;52.164;4.472;2022-09-21T10:50:02;19.06;47.00
66670;DHT22;53568;52.164;4.472;2022-09-21T10:52:34;19.20;46.03
66670;DHT22;53568;52.164;4.472;2022-09-21T10:55:03;19.23;46.95
66670;DHT22;53568;52.164;4.472;2022-09-21T10:57:31;19.37;47.24
66670;DHT22;53568;52.164;4.472;2022-09-21T11:00:11;19.44;46.55
66670;DHT22;53568;52.164;4.472;2022-09-21T11:02:37;19.43;46.56
66670;DHT22;53568;52.164;4.472;2022-09-21T11:07:50;19.51;44.47
66670;DHT22;53568;52.164;4.472;2022-09-21T11:10:27;19.63;44.09
66670;DHT22;53568;52.164;4.472;2022-09-21T11:16:00;19.68;44.67
66670;DHT22;53568;52.164;4.472;2022-09-21T11:21:32;19.71;44.69
66670;DHT22;53568;52.164;4.472;2022-09-21T11:24:06;19.73;44.76
66670;DHT22;53568;52.164;4.472;2022-09-21T11:29:27;19.53;45.86
66670;DHT22;53568;52.164;4.472;2022-09-21T11:32:10;19.20;46.97
66670;DHT22;53568;52.164;4.472;2022-09-21T11:37:48;19.26;47.57
66670;DHT22;53568;52.164;4.472;2022-09-21T11:43:32;19.31;46.69
66670;DHT22;53568;52.164;4.472;2022-09-21T11:46:18;19.20;46.56
66670;DHT22;53568;52.164;4.472;2022-09-21T11:51:49;19.17;47.29
66670;DHT22;53568;52.164;4.472;2022-09-21T11:57:19;19.33;47.58
66670;DHT22;53568;52.164;4.472;2022-09-21T12:05:01;19.49;46.78
66670;DHT22;53568;52.164;4.472;2022-09-21T12:13:00;19.55;47.23
66670;DHT22;53568;52.164;4.472;2022-09-21T12:18:46;19.54;48.03
66670;DHT22;53568;52.164;4.472;2022-09-21T12:21:27;19.63;48.16
66670;DHT22;53568;52.164;4.472;2022-09-21T12:23:56;19.67;48.68
66670;DHT22;53568;52.164;4.472;2022-09-21T12:26:28;19.64;48.06
66670;DHT22;53568;52.164;4.472;2022-09-21T12:29:14;19.77;47.44
66670;DHT22;53568;52.164;4.472;2022-09-21T12:32:21;19.73;46.09
66670;DHT22;53568;52.164;4.472;2022-09-21T12:34:55;19.70;44.90
66670;DHT22;53568;52.164;4.472;2022-09-21T12:40:14;19.21;44.27
66670;DHT22;53568;52.164;4.472;2022-09-21T12:42:54;19.27;44.84
66670;DHT22;53568;52.164;4.472;2022-09-21T12:45:37;19.37;45.55
66670;DHT22;53568;52.164;4.472;2022-09-21T12:48:30;19.50;46.02
66670;DHT22;53568;52.164;4.472;2022-09-21T12:51:03;19.58;45.14
66670;DHT22;53568;52.164;4.472;2022-09-21T12:53:34;19.65;45.37
66670;DHT22;53568;52.164;4.472;2022-09-21T12:56:08;19.74;46.61
66670;DHT22;53568;52.164;4.472;2022-09-21T12:59:25;19.87;46.19
66670;DHT22;53568;52.164;4.472;2022-09-21T13:04:54;20.01;46.09
66670;DHT22;53568;52.164;4.472;2022-09-21T13:10:00;19.82;45.12
66670;DHT22;53568;52.164;4.472;2022-09-21T13:12:39;19.82;45.52
66670;DHT22;53568;52.164;4.472;2022-09-21T13:15:28;19.84;45.99
66670;DHT22;53568;52.164;4.472;2022-09-21T13:18:01;19.79;45.79
66670;DHT22;53568;52.164;4.472;2022-09-21T13:20:34;19.82;45.33
66670;DHT22;53568;52.164;4.472;2022-09-21T13:23:02;19.85;45.21
66670;DHT22;53568;52.164;4.472;2022-09-21T13:25:30;19.82;46.08
66670;DHT22;53568;52.164;4.472;2022-09-21T13:38:25;19.71;46.14
66670;DHT22;53568;52.164;4.472;2022-09-21T13:43:58;19.68;45.04
66670;DHT22;53568;52.164;4.472;2022-09-21T13:52:25;19.67;44.86
66670;DHT22;53568;52.164;4.472;2022-09-21T13:54:58;19.58;44.41
66670;DHT22;53568;52.164;4.472;2022-09-21T13:57:26;19.57;45.10
66670;DHT22;53568;52.164;4.472;2022-09-21T14:05:39;19.70;45.06
66670;DHT22;53568;52.164;4.472;2022-09-21T14:08:19;19.77;45.30
66670;DHT22;53568;52.164;4.472;2022-09-21T14:10:59;19.74;45.23
66670;DHT22;53568;52.164;4.472;2022-09-21T14:13:39;19.77;45.02
66670;DHT22;53568;52.164;4.472;2022-09-21T14:18:53;19.79;45.73
66670;DHT22;53568;52.164;4.472;2022-09-21T14:21:19;19.79;46.29
66670;DHT22;53568;52.164;4.472;2022-09-21T14:27:00;19.85;43.81
66670;DHT22;53568;52.164;4.472;2022-09-21T14:29:32;19.92;44.66
66670;DHT22;53568;52.164;4.472;2022-09-21T14:32:09;20.08;45.11
66670;DHT22;53568;52.164;4.472;2022-09-21T14:34:39;20.18;45.41
66670;DHT22;53568;52.164;4.472;2022-09-21T14:39:45;20.39;46.68
66670;DHT22;53568;52.164;4.472;2022-09-21T14:42:23;20.39;46.95
66670;DHT22;53568;52.164;4.472;2022-09-21T14:44:56;20.31;46.20
66670;DHT22;53568;52.164;4.472;2022-09-21T14:50:11;19.88;46.36
66670;DHT22;53568;52.164;4.472;2022-09-21T15:00:46;20.02;45.78
66670;DHT22;53568;52.164;4.472;2022-09-21T15:06:21;19.47;45.79
66670;DHT22;53568;52.164;4.472;2022-09-21T15:12:44;18.97;47.66
66670;DHT22;53568;52.164;4.472;2022-09-21T15:17:58;18.77;48.16
66670;DHT22;53568;52.164;4.472;2022-09-21T15:20:26;18.62;48.22
66670;DHT22;53568;52.164;4.472;2022-09-21T15:22:56;18.52;48.51
66670;DHT22;53568;52.164;4.472;2022-09-21T15:25:25;18.53;48.31
66670;DHT22;53568;52.164;4.472;2022-09-21T15:27:53;18.46;48.35
66670;DHT22;53568;52.164;4.472;2022-09-21T15:30:22;18.53;48.16
66670;DHT22;53568;52.164;4.472;2022-09-21T15:33:00;18.69;47.71
66670;DHT22;53568;52.164;4.472;2022-09-21T15:35:29;18.66;47.20
66670;DHT22;53568;52.164;4.472;2022-09-21T15:37:56;18.76;46.85
66670;DHT22;53568;52.164;4.472;2022-09-21T15:40:45;18.59;48.01
66670;DHT22;53568;52.164;4.472;2022-09-21T15:48:35;18.60;48.50
66670;DHT22;53568;52.164;4.472;2022-09-21T15:51:16;18.69;48.22
66670;DHT22;53568;52.164;4.472;2022-09-21T15:53:49;18.56;48.27
66670;DHT22;53568;52.164;4.472;2022-09-21T15:56:19;18.60;48.55
66670;DHT22;53568;52.164;4.472;2022-09-21T15:58:47;18.48;49.40
66670;DHT22;53568;52.164;4.472;2022-09-21T16:01:20;18.42;47.66
66670;DHT22;53568;52.164;4.472;2022-09-21T16:04:01;18.38;48.53
66670;DHT22;53568;52.164;4.472;2022-09-21T16:06:38;18.45;48.45
66670;DHT22;53568;52.164;4.472;2022-09-21T16:11:56;18.53;48.53
66670;DHT22;53568;52.164;4.472;2022-09-21T16:14:22;18.59;48.14
66670;DHT22;53568;52.164;4.472;2022-09-21T16:20:13;18.59;48.19
66670;DHT22;53568;52.164;4.472;2022-09-21T16:22:45;18.62;47.54
66670;DHT22;53568;52.164;4.472;2022-09-21T16:25:32;18.67;48.10
66670;DHT22;53568;52.164;4.472;2022-09-21T16:28:25;18.59;48.00
66670;DHT22;53568;52.164;4.472;2022-09-21T16:30:52;18.48;48.00
66670;DHT22;53568;52.164;4.472;2022-09-21T16:33:40;18.53;47.11
66670;DHT22;53568;52.164;4.472;2022-09-21T16:38:56;18.41;46.13
66670;DHT22;53568;52.164;4.472;2022-09-21T16:41:24;18.45;46.48
66670;DHT22;53568;52.164;4.472;2022-09-21T16:43:51;18.22;49.25
66670;DHT22;53568;52.164;4.472;2022-09-21T16:46:18;18.21;49.82
66670;DHT22;53568;52.164;4.472;2022-09-21T16:48:43;18.25;50.40
66670;DHT22;53568;52.164;4.472;2022-09-21T16:51:11;18.22;50.85
66670;DHT22;53568;52.164;4.472;2022-09-21T16:53:38;18.13;51.35
66670;DHT22;53568;52.164;4.472;2022-09-21T16:56:04;18.22;51.34
66670;DHT22;53568;52.164;4.472;2022-09-21T16:58:31;18.28;51.16
66670;DHT22;53568;52.164;4.472;2022-09-21T17:00:57;18.24;51.62
66670;DHT22;53568;52.164;4.472;2022-09-21T17:03:23;18.26;51.80
66670;DHT22;53568;52.164;4.472;2022-09-21T17:05:48;18.33;51.13
66670;DHT22;53568;52.164;4.472;2022-09-21T17:08:14;18.25;50.84
66670;DHT22;53568;52.164;4.472;2022-09-21T17:10:44;18.22;50.81
66670;DHT22;53568;52.164;4.472;2022-09-21T17:13:11;18.24;53.27
66670;DHT22;53568;52.164;4.472;2022-09-21T17:15:46;18.06;51.11
66670;DHT22;53568;52.164;4.472;2022-09-21T17:18:12;17.97;50.32
66670;DHT22;53568;52.164;4.472;2022-09-21T17:20:42;18.04;50.95
66670;DHT22;53568;52.164;4.472;2022-09-21T17:23:08;17.97;51.41
66670;DHT22;53568;52.164;4.472;2022-09-21T17:25:35;17.97;51.09
66670;DHT22;53568;52.164;4.472;2022-09-21T17:28:05;17.92;51.48
66670;DHT22;53568;52.164;4.472;2022-09-21T17:30:35;17.94;51.39
66670;DHT22;53568;52.164;4.472;2022-09-21T17:33:01;17.98;51.28
66670;DHT22;53568;52.164;4.472;2022-09-21T17:35:35;17.91;51.70
66670;DHT22;53568;52.164;4.472;2022-09-21T17:38:01;17.64;52.68
66670;DHT22;53568;52.164;4.472;2022-09-21T17:40:27;17.68;52.68
66670;DHT22;53568;52.164;4.472;2022-09-21T17:43:14;17.74;52.52
66670;DHT22;53568;52.164;4.472;2022-09-21T17:46:00;17.78;52.86
66670;DHT22;53568;52.164;4.472;2022-09-21T17:48:29;17.87;52.80
66670;DHT22;53568;52.164;4.472;2022-09-21T17:50:55;17.92;53.04
66670;DHT22;53568;52.164;4.472;2022-09-21T17:53:20;17.94;52.76
66670;DHT22;53568;52.164;4.472;2022-09-21T17:56:13;17.87;53.17
66670;DHT22;53568;52.164;4.472;2022-09-21T17:58:44;17.85;53.34
66670;DHT22;53568;52.164;4.472;2022-09-21T18:01:34;17.87;53.57
66670;DHT22;53568;52.164;4.472;2022-09-21T18:04:00;17.87;54.00
66670;DHT22;53568;52.164;4.472;2022-09-21T18:06:27;17.88;53.63
66670;DHT22;53568;52.164;4.472;2022-09-21T18:08:53;17.91;53.61
66670;DHT22;53568;52.164;4.472;2022-09-21T18:17:31;17.95;53.99
66670;DHT22;53568;52.164;4.472;2022-09-21T18:25:57;18.00;54.20
66670;DHT22;53568;52.164;4.472;2022-09-21T18:28:39;17.90;54.29
66670;DHT22;53568;52.164;4.472;2022-09-21T18:37:16;17.84;54.19
66670;DHT22;53568;52.164;4.472;2022-09-21T18:42:44;17.82;54.15
66670;DHT22;53568;52.164;4.472;2022-09-21T18:45:39;17.74;54.24
66670;DHT22;53568;52.164;4.472;2022-09-21T18:53:55;17.58;55.36
66670;DHT22;53568;52.164;4.472;2022-09-21T18:56:26;17.51;55.78
66670;DHT22;53568;52.164;4.472;2022-09-21T18:58:54;17.47;55.48
66670;DHT22;53568;52.164;4.472;2022-09-21T19:01:23;17.48;55.40
66670;DHT22;53568;52.164;4.472;2022-09-21T19:03:51;17.51;55.24
66670;DHT22;53568;52.164;4.472;2022-09-21T19:22:09;17.33;56.24
66670;DHT22;53568;52.164;4.472;2022-09-21T19:24:51;17.33;56.37
66670;DHT22;53568;52.164;4.472;2022-09-21T19:27:37;17.24;56.53
66670;DHT22;53568;52.164;4.472;2022-09-21T19:30:12;17.26;56.77
66670;DHT22;53568;52.164;4.472;2022-09-21T19:32:45;17.24;56.81
66670;DHT22;53568;52.164;4.472;2022-09-21T19:37:44;17.28;57.46
66670;DHT22;53568;52.164;4.472;2022-09-21T19:40:12;17.22;57.83
66670;DHT22;53568;52.164;4.472;2022-09-21T19:48:17;17.12;58.22
66670;DHT22;53568;52.164;4.472;2022-09-21T19:50:51;17.09;57.95
66670;DHT22;53568;52.164;4.472;2022-09-21T19:53:17;17.07;57.40
66670;DHT22;53568;52.164;4.472;2022-09-21T19:56:01;17.04;57.04
66670;DHT22;53568;52.164;4.472;2022-09-21T19:58:51;17.09;57.37
66670;DHT22;53568;52.164;4.472;2022-09-21T20:01:40;17.03;57.83